createdAt,value
2022-11-01T00:02:00.253Z,10.97
2022-11-01T00:04:29.881Z,11.40
2022-11-01T00:06:58.101Z,10.90
2022-11-01T00:09:26.185Z,9.83
2022-11-01T00:11:54.323Z,11.57
2022-11-01T00:14:22.595Z,7.70
2022-11-01T00:16:51.074Z,9.47
2022-11-01T00:19:19.547Z,9.10
2022-11-01T00:21:49.109Z,9.27
2022-11-01T00:24:17.289Z,6.80
2022-11-01T00:26:45.453Z,7.33
2022-11-01T00:29:14.047Z,6.20
2022-11-01T00:31:42.248Z,6.87
2022-11-01T00:34:10.477Z,8.23
2022-11-01T00:36:38.667Z,9.30
2022-11-01T00:39:08.220Z,12.43
2022-11-01T00:41:36.393Z,6.70
2022-11-01T00:44:04.941Z,8.17
2022-11-01T00:46:33.238Z,8.20
2022-11-01T00:49:01.854Z,10.13
2022-11-01T00:51:30.193Z,8.90
2022-11-01T00:53:58.453Z,7.63
2022-11-01T00:56:28.407Z,8.07
2022-11-01T00:58:56.502Z,7.93
2022-11-01T01:01:24.714Z,9.70
2022-11-01T01:03:53.011Z,6.60
2022-11-01T01:06:21.214Z,7.57
2022-11-01T01:08:49.348Z,6.43
2022-11-01T01:11:17.543Z,6.20
2022-11-01T01:13:47.144Z,11.13
2022-11-01T01:16:15.272Z,9.53
2022-11-01T01:23:14.859Z,8.10
2022-11-01T01:25:43.953Z,8.07
2022-11-01T01:28:12.125Z,7.03
2022-11-01T01:30:42.535Z,4.97
2022-11-01T01:35:39.453Z,5.30
2022-11-01T01:38:08.185Z,11.43
2022-11-01T01:40:36.502Z,7.47
2022-11-01T01:43:05.705Z,7.77
2022-11-01T01:45:36.775Z,7.13
2022-11-01T01:48:11.585Z,6.47
2022-11-01T01:50:43.089Z,5.47
2022-11-01T01:53:15.176Z,4.83
2022-11-01T01:55:49.080Z,4.30
2022-11-01T01:58:19.329Z,8.10
2022-11-01T02:00:47.672Z,5.30
2022-11-01T02:03:17.302Z,7.97
2022-11-01T02:05:48.707Z,7.10
2022-11-01T02:08:26.585Z,5.83
2022-11-01T02:10:56.390Z,7.60
2022-11-01T02:13:24.635Z,5.97
2022-11-01T02:16:02.086Z,6.37
2022-11-01T02:18:36.642Z,8.70
2022-11-01T02:21:22.726Z,7.13
2022-11-01T02:24:27.043Z,5.30
2022-11-01T02:27:15.681Z,6.53
2022-11-01T02:29:58.182Z,5.13
2022-11-01T02:32:30.112Z,5.87
2022-11-01T02:35:00.533Z,5.57
2022-11-01T02:37:31.989Z,6.23
2022-11-01T02:40:03.480Z,8.30
2022-11-01T02:42:34.457Z,6.37
2022-11-01T02:45:06.530Z,6.43
2022-11-01T02:47:36.198Z,5.03
2022-11-01T02:50:07.962Z,4.87
2022-11-01T02:52:38.008Z,5.97
2022-11-01T02:55:29.827Z,5.13
2022-11-01T02:58:01.367Z,4.43
2022-11-01T03:00:31.550Z,6.50
2022-11-01T03:03:11.106Z,5.60
2022-11-01T03:05:46.290Z,4.93
2022-11-01T03:08:16.628Z,6.33
2022-11-01T03:10:47.895Z,5.10
2022-11-01T03:13:29.070Z,12.33
2022-11-01T03:16:04.162Z,5.67
2022-11-01T03:18:36.850Z,4.83
2022-11-01T03:21:15.834Z,7.83
2022-11-01T03:23:50.446Z,5.63
2022-11-01T03:26:26.050Z,7.13
2022-11-01T03:31:32.863Z,7.83
2022-11-01T03:34:04.545Z,4.80
2022-11-01T03:36:35.423Z,4.47
2022-11-01T03:39:07.016Z,5.70
2022-11-01T03:41:39.047Z,6.77
2022-11-01T03:44:08.221Z,6.73
2022-11-01T03:46:36.650Z,6.30
2022-11-01T03:49:06.130Z,7.13
2022-11-01T03:51:34.311Z,7.10
2022-11-01T03:54:02.413Z,5.90
2022-11-01T03:56:30.572Z,7.30
2022-11-01T03:58:58.766Z,6.97
2022-11-01T04:01:27.004Z,5.57
2022-11-01T04:03:55.221Z,4.77
2022-11-01T04:06:24.715Z,8.30
2022-11-01T04:08:53.172Z,6.23
2022-11-01T04:11:21.222Z,6.47
2022-11-01T04:13:49.388Z,6.50
2022-11-01T04:16:34.991Z,5.87
2022-11-01T04:19:20.681Z,4.67
2022-11-01T04:21:50.327Z,8.90
2022-11-01T04:24:21.155Z,6.80
2022-11-01T04:26:49.653Z,5.23
2022-11-01T04:29:17.744Z,6.90
2022-11-01T04:31:45.834Z,4.90
2022-11-01T04:34:13.981Z,6.00
2022-11-01T04:36:42.103Z,7.27
2022-11-01T04:39:11.832Z,3.30
2022-11-01T04:41:39.963Z,6.30
2022-11-01T04:44:08.326Z,3.90
2022-11-01T04:46:36.495Z,4.80
2022-11-01T04:49:04.590Z,4.27
2022-11-01T04:51:32.828Z,3.97
2022-11-01T04:54:01.004Z,4.20
2022-11-01T04:56:30.563Z,5.47
2022-11-01T04:58:58.739Z,3.97
2022-11-01T05:01:27.037Z,6.23
2022-11-01T05:03:57.410Z,5.87
2022-11-01T05:06:25.545Z,5.00
2022-11-01T05:08:55.563Z,5.23
2022-11-01T05:11:25.759Z,5.93
2022-11-01T05:13:55.690Z,5.17
2022-11-01T05:16:23.806Z,4.23
2022-11-01T05:18:52.007Z,5.20
2022-11-01T05:21:20.194Z,5.10
2022-11-01T05:23:48.965Z,6.07
2022-11-01T05:26:17.295Z,6.17
2022-11-01T05:28:45.534Z,7.50
2022-11-01T05:31:15.171Z,3.87
2022-11-01T05:33:43.486Z,6.13
2022-11-01T05:36:11.671Z,3.47
2022-11-01T05:38:39.928Z,6.13
2022-11-01T05:41:08.049Z,4.33
2022-11-01T05:43:36.236Z,3.90
2022-11-01T05:46:05.253Z,6.77
2022-11-01T05:48:35.028Z,6.37
2022-11-01T05:51:03.192Z,5.30
2022-11-01T05:53:31.248Z,4.03
2022-11-01T05:55:59.894Z,6.33
2022-11-01T05:58:30.766Z,5.90
2022-11-01T06:00:59.795Z,4.83
2022-11-01T06:03:28.045Z,6.20
2022-11-01T06:05:57.737Z,5.40
2022-11-01T06:08:26.015Z,6.63
2022-11-01T06:10:54.505Z,5.97
2022-11-01T06:13:22.542Z,3.33
2022-11-01T06:15:50.642Z,6.00
2022-11-01T06:18:18.662Z,7.77
2022-11-01T06:20:47.001Z,6.37
2022-11-01T06:23:16.507Z,5.93
2022-11-01T06:25:44.665Z,5.73
2022-11-01T06:28:15.988Z,5.07
2022-11-01T06:30:45.710Z,3.43
2022-11-01T06:33:13.824Z,6.90
2022-11-01T06:35:41.974Z,6.97
2022-11-01T06:38:10.424Z,5.23
2022-11-01T06:40:40.034Z,7.40
2022-11-01T06:43:08.511Z,3.60
2022-11-01T06:45:37.105Z,3.77
2022-11-01T06:48:10.697Z,4.20
2022-11-01T06:50:42.898Z,3.17
2022-11-01T06:53:11.864Z,7.60
2022-11-01T06:55:50.685Z,3.33
2022-11-01T06:58:22.463Z,2.77
2022-11-01T07:00:51.420Z,4.60
2022-11-01T07:03:19.903Z,6.67
2022-11-01T07:05:49.547Z,4.07
2022-11-01T07:08:18.992Z,4.03
2022-11-01T07:10:47.207Z,6.13
2022-11-01T07:13:17.009Z,3.90
2022-11-01T07:15:45.466Z,6.80
2022-11-01T07:18:19.823Z,2.77
2022-11-01T07:20:48.322Z,3.13
2022-11-01T07:23:18.044Z,3.53
2022-11-01T07:25:46.214Z,5.20
2022-11-01T07:28:14.265Z,5.27
2022-11-01T07:30:44.541Z,5.27
2022-11-01T07:33:12.724Z,5.13
2022-11-01T07:35:40.798Z,3.57
2022-11-01T07:38:12.971Z,2.40
2022-11-01T07:40:41.907Z,3.57
2022-11-01T07:43:10.516Z,3.50
2022-11-01T07:45:38.789Z,4.23
2022-11-01T07:48:10.855Z,2.47
2022-11-01T07:50:40.122Z,2.77
2022-11-01T07:53:10.072Z,2.40
2022-11-01T07:55:38.966Z,1.93
2022-11-01T07:58:08.205Z,3.13
2022-11-01T08:00:37.077Z,1.63
2022-11-01T08:03:07.046Z,5.77
2022-11-01T08:05:36.830Z,3.77
2022-11-01T08:08:05.952Z,3.63
2022-11-01T08:10:35.104Z,4.40
2022-11-01T08:13:04.740Z,3.10
2022-11-01T08:15:33.620Z,2.17
2022-11-01T08:18:02.708Z,2.50
2022-11-01T08:20:31.161Z,2.67
2022-11-01T08:23:00.796Z,4.63
2022-11-01T08:25:29.162Z,3.43
2022-11-01T08:28:02.159Z,2.27
2022-11-01T08:30:30.283Z,3.00
2022-11-01T08:33:02.754Z,3.60
2022-11-01T08:35:32.663Z,1.57
2022-11-01T08:38:03.386Z,1.67
2022-11-01T08:40:32.266Z,1.90
2022-11-01T08:43:01.066Z,4.03
2022-11-01T08:45:29.699Z,2.50
2022-11-01T08:47:59.769Z,2.53
2022-11-01T08:50:28.505Z,2.03
2022-11-01T08:52:56.676Z,2.27
2022-11-01T08:55:26.645Z,3.77
2022-11-01T08:57:54.812Z,2.90
2022-11-01T09:00:23.151Z,2.77
2022-11-01T09:02:51.300Z,2.77
2022-11-01T09:05:19.410Z,5.13
2022-11-01T09:07:47.690Z,1.87
2022-11-01T09:10:16.344Z,2.13
2022-11-01T09:12:45.827Z,3.37
2022-11-01T09:15:13.985Z,2.07
2022-11-01T09:17:41.963Z,2.33
2022-11-01T09:20:11.080Z,3.40
2022-11-01T09:22:39.215Z,5.70
2022-11-01T09:25:08.121Z,2.57
2022-11-01T09:27:36.348Z,2.10
2022-11-01T09:30:06.985Z,3.30
2022-11-01T09:32:35.856Z,2.73
2022-11-01T09:35:06.024Z,3.90
2022-11-01T09:37:34.438Z,4.93
2022-11-01T09:40:03.360Z,4.53
2022-11-01T09:42:34.523Z,2.17
2022-11-01T09:45:07.043Z,4.30
2022-11-01T09:47:36.782Z,3.70
2022-11-01T09:50:12.248Z,8.90
2022-11-01T09:52:41.820Z,3.57
2022-11-01T09:55:14.463Z,1.83
2022-11-01T09:57:45.999Z,3.13
2022-11-01T10:00:17.594Z,6.13
2022-11-01T10:03:04.434Z,6.23
2022-11-01T10:05:48.788Z,3.40
2022-11-01T10:08:25.203Z,2.07
2022-11-01T10:11:03.310Z,3.03
2022-11-01T10:13:39.073Z,3.70
2022-11-01T10:16:12.221Z,2.60
2022-11-01T10:18:46.412Z,3.43
2022-11-01T10:21:16.601Z,4.93
2022-11-01T10:23:48.710Z,4.03
2022-11-01T10:26:19.358Z,3.67
2022-11-01T10:28:52.919Z,1.90
2022-11-01T10:31:24.829Z,4.07
2022-11-01T10:33:56.868Z,5.70
2022-11-01T10:36:27.545Z,3.13
2022-11-01T10:39:37.268Z,3.67
2022-11-01T10:41:51.355Z,4.27
2022-11-01T10:44:25.793Z,2.93
2022-11-01T10:46:55.832Z,5.83
2022-11-01T10:49:35.169Z,3.07
2022-11-01T10:52:15.740Z,5.30
2022-11-01T10:54:44.879Z,3.80
2022-11-01T10:57:26.205Z,5.50
2022-11-01T10:59:56.968Z,2.87
2022-11-01T11:02:33.769Z,3.70
2022-11-01T11:05:02.057Z,3.10
2022-11-01T11:07:32.477Z,4.60
2022-11-01T11:12:34.756Z,2.70
2022-11-01T11:15:06.363Z,3.37
2022-11-01T11:17:39.934Z,4.63
2022-11-01T11:20:11.346Z,4.20
2022-11-01T11:22:40.934Z,2.80
2022-11-01T11:25:15.525Z,1.90
2022-11-01T11:27:47.641Z,5.77
2022-11-01T11:30:27.879Z,4.40
2022-11-01T11:32:58.632Z,5.97
2022-11-01T11:35:28.474Z,5.23
2022-11-01T11:37:58.740Z,3.93
2022-11-01T11:40:27.945Z,3.77
2022-11-01T11:42:57.280Z,5.20
2022-11-01T11:45:28.441Z,4.43
2022-11-01T11:47:59.652Z,5.30
2022-11-01T11:50:32.896Z,6.47
2022-11-01T11:53:07.839Z,4.73
2022-11-01T11:55:42.154Z,6.23
2022-11-01T11:58:21.327Z,3.40
2022-11-01T12:00:51.434Z,5.83
2022-11-01T12:03:21.757Z,6.63
2022-11-01T12:05:59.812Z,5.13
2022-11-01T12:08:35.912Z,4.50
2022-11-01T12:11:04.579Z,5.97
2022-11-01T12:13:36.159Z,5.17
2022-11-01T12:16:22.266Z,5.43
2022-11-01T12:18:54.001Z,5.30
2022-11-01T12:21:28.845Z,4.37
2022-11-01T12:24:01.743Z,8.70
2022-11-01T12:26:32.848Z,5.43
2022-11-01T12:29:06.199Z,3.47
2022-11-01T12:31:34.803Z,4.80
2022-11-01T12:34:08.124Z,8.37
2022-11-01T12:36:42.789Z,4.57
2022-11-01T12:39:20.793Z,4.10
2022-11-01T12:41:51.882Z,6.13
2022-11-01T12:44:32.341Z,5.00
2022-11-01T12:47:06.056Z,5.30
2022-11-01T12:49:38.805Z,6.50
2022-11-01T12:52:12.698Z,5.47
2022-11-01T12:54:42.779Z,4.20
2022-11-01T12:57:14.749Z,5.13
2022-11-01T12:59:44.237Z,4.43
2022-11-01T13:02:24.287Z,4.50
2022-11-01T13:04:58.423Z,4.47
2022-11-01T13:07:34.705Z,4.53
2022-11-01T13:10:10.649Z,4.87
2022-11-01T13:12:45.297Z,6.03
2022-11-01T13:15:18.320Z,4.60
2022-11-01T13:17:52.420Z,6.40
2022-11-01T13:20:36.867Z,10.47
2022-11-01T13:23:12.357Z,4.33
2022-11-01T13:25:43.794Z,8.50
2022-11-01T13:28:24.389Z,8.07
2022-11-01T13:30:58.071Z,8.87
2022-11-01T13:33:33.914Z,5.57
2022-11-01T13:36:07.709Z,5.53
2022-11-01T13:38:40.134Z,5.83
2022-11-01T13:41:19.546Z,3.77
2022-11-01T13:43:51.746Z,6.87
2022-11-01T13:46:55.314Z,7.70
2022-11-01T13:49:53.129Z,6.00
2022-11-01T13:52:27.012Z,4.67
2022-11-01T13:55:08.142Z,3.80
2022-11-01T13:57:40.064Z,6.80
2022-11-01T14:00:38.357Z,5.07
2022-11-01T14:03:29.609Z,6.27
2022-11-01T14:06:32.324Z,6.67
2022-11-01T14:09:30.224Z,5.50
2022-11-01T14:12:02.540Z,4.77
2022-11-01T14:14:53.239Z,3.77
2022-11-01T14:17:47.101Z,5.37
2022-11-01T14:20:47.241Z,3.47
2022-11-01T14:23:55.312Z,5.00
2022-11-01T14:27:05.056Z,4.27
2022-11-01T14:29:36.603Z,6.07
2022-11-01T14:32:05.291Z,3.77
2022-11-01T14:34:36.143Z,5.73
2022-11-01T14:37:11.038Z,4.83
2022-11-01T14:39:41.080Z,6.17
2022-11-01T14:42:13.421Z,5.00
2022-11-01T14:44:48.103Z,7.77
2022-11-01T14:47:26.933Z,8.60
2022-11-01T14:49:58.091Z,9.47
2022-11-01T14:52:31.143Z,8.07
2022-11-01T14:55:07.300Z,5.90
2022-11-01T14:57:36.037Z,5.23
2022-11-01T15:00:23.530Z,5.27
2022-11-01T15:02:52.015Z,5.00
2022-11-01T15:05:20.435Z,8.07
2022-11-01T15:07:51.744Z,6.27
2022-11-01T15:10:20.007Z,5.53
2022-11-01T15:12:49.870Z,6.67
2022-11-01T15:15:23.316Z,6.57
2022-11-01T15:17:54.669Z,9.07
2022-11-01T15:20:23.320Z,7.10
2022-11-01T15:22:55.071Z,4.43
2022-11-01T15:25:26.563Z,6.43
2022-11-01T15:27:55.649Z,8.03
2022-11-01T15:30:26.562Z,7.73
2022-11-01T15:33:20.841Z,6.73
2022-11-01T15:35:55.289Z,7.23
2022-11-01T15:38:23.565Z,7.87
2022-11-01T15:40:52.276Z,8.47
2022-11-01T15:43:22.031Z,6.23
2022-11-01T15:45:54.230Z,5.57
2022-11-01T15:48:25.214Z,7.43
2022-11-01T15:50:55.838Z,8.53
2022-11-01T15:53:26.375Z,8.43
2022-11-01T15:55:56.502Z,10.60
2022-11-01T15:58:27.179Z,6.23
2022-11-01T16:01:01.511Z,7.97
2022-11-01T16:03:32.696Z,5.93
2022-11-01T16:06:03.167Z,6.20
2022-11-01T16:08:34.974Z,7.13
2022-11-01T16:11:03.194Z,7.40
2022-11-01T16:13:32.440Z,10.37
2022-11-01T16:16:07.000Z,5.57
2022-11-01T16:18:36.272Z,5.90
2022-11-01T16:21:06.384Z,9.50
2022-11-01T16:23:35.123Z,3.97
2022-11-01T16:26:05.791Z,9.43
2022-11-01T16:28:39.929Z,9.17
2022-11-01T16:31:22.391Z,8.77
2022-11-01T16:33:51.259Z,6.97
2022-11-01T16:36:41.466Z,13.20
2022-11-01T16:39:29.579Z,7.97
2022-11-01T16:41:59.103Z,9.17
2022-11-01T16:44:27.387Z,10.57
2022-11-01T16:46:57.296Z,8.27
2022-11-01T16:49:29.090Z,10.00
2022-11-01T16:51:57.291Z,8.23
2022-11-01T16:54:25.731Z,10.83
2022-11-01T16:56:55.154Z,9.50
2022-11-01T16:59:36.793Z,8.70
2022-11-01T17:02:16.520Z,9.23
2022-11-01T17:04:45.533Z,6.40
2022-11-01T17:07:14.254Z,5.67
2022-11-01T17:09:43.825Z,5.90
2022-11-01T17:12:12.756Z,8.73
2022-11-01T17:14:42.150Z,9.07
2022-11-01T17:17:15.706Z,7.57
2022-11-01T17:20:15.148Z,8.93
2022-11-01T17:25:31.589Z,8.33
2022-11-01T17:27:59.912Z,6.87
2022-11-01T17:30:34.354Z,9.33
2022-11-01T17:33:06.002Z,6.80
2022-11-01T17:35:34.780Z,9.43
2022-11-01T17:38:03.360Z,8.37
2022-11-01T17:40:33.680Z,6.20
2022-11-01T17:43:04.216Z,7.60
2022-11-01T17:45:34.115Z,11.77
2022-11-01T17:48:04.846Z,10.83
2022-11-01T17:50:39.144Z,6.53
2022-11-01T17:53:13.167Z,9.20
2022-11-01T17:55:46.020Z,9.33
2022-11-01T17:58:14.924Z,11.43
2022-11-01T18:00:45.278Z,8.40
2022-11-01T18:03:14.962Z,9.83
2022-11-01T18:05:45.451Z,7.03
2022-11-01T18:08:17.858Z,6.63
2022-11-01T18:10:50.902Z,10.77
2022-11-01T18:13:32.192Z,11.67
2022-11-01T18:16:04.742Z,8.07
2022-11-01T18:18:46.210Z,8.27
2022-11-01T18:21:20.965Z,8.10
2022-11-01T18:23:51.024Z,10.90
2022-11-01T18:26:22.951Z,13.07
2022-11-01T18:28:54.813Z,9.93
2022-11-01T18:31:26.322Z,7.73
2022-11-01T18:34:06.275Z,13.27
2022-11-01T18:36:54.244Z,7.50
2022-11-01T18:39:26.122Z,8.20
2022-11-01T18:41:54.919Z,11.37
2022-11-01T18:44:24.724Z,8.33
2022-11-01T18:46:58.146Z,8.80
2022-11-01T18:49:28.148Z,9.27
2022-11-01T18:51:58.370Z,6.57
2022-11-01T18:54:28.591Z,6.17
2022-11-01T18:56:58.387Z,9.53
2022-11-01T18:59:30.665Z,13.47
2022-11-01T19:02:02.067Z,11.87
2022-11-01T19:04:32.526Z,10.20
2022-11-01T19:07:09.679Z,8.83
2022-11-01T19:09:39.634Z,12.17
2022-11-01T19:12:21.601Z,9.93
2022-11-01T19:14:58.861Z,12.97
2022-11-01T19:17:28.896Z,7.70
2022-11-01T19:20:08.832Z,8.33
2022-11-01T19:22:42.365Z,9.03
2022-11-01T19:25:24.636Z,7.10
2022-11-01T19:28:07.063Z,12.50
2022-11-01T19:30:36.993Z,10.33
2022-11-01T19:33:22.597Z,7.80
2022-11-01T19:35:58.057Z,11.43
2022-11-01T19:38:38.108Z,9.97
2022-11-01T19:41:24.768Z,10.37
2022-11-01T19:44:04.322Z,12.10
2022-11-01T19:46:47.973Z,11.07
2022-11-01T19:49:37.531Z,9.57
2022-11-01T19:52:29.010Z,10.10
2022-11-01T19:55:32.731Z,10.80
2022-11-01T19:58:28.253Z,6.87
2022-11-01T20:01:03.338Z,11.73
2022-11-01T20:03:48.788Z,12.73
2022-11-01T20:06:25.291Z,12.37
2022-11-01T20:09:05.099Z,9.60
2022-11-01T20:11:43.693Z,8.07
2022-11-01T20:14:19.602Z,8.43
2022-11-01T20:16:58.319Z,10.30
2022-11-01T20:19:33.892Z,10.33
2022-11-01T20:22:13.769Z,8.43
2022-11-01T20:24:50.585Z,10.83
2022-11-01T20:27:30.750Z,7.60
2022-11-01T20:30:11.673Z,9.43
2022-11-01T20:32:45.973Z,8.83
2022-11-01T20:35:19.146Z,10.80
2022-11-01T20:37:54.928Z,11.03
2022-11-01T20:40:30.898Z,9.83
2022-11-01T20:43:07.696Z,8.97
2022-11-01T20:45:38.852Z,7.93
2022-11-01T20:48:15.805Z,8.20
2022-11-01T20:50:51.198Z,8.90
2022-11-01T20:53:29.702Z,9.83
2022-11-01T20:56:03.369Z,8.93
2022-11-01T20:58:40.609Z,12.00
2022-11-01T21:01:20.490Z,11.37
2022-11-01T21:03:54.608Z,7.37
2022-11-01T21:06:32.970Z,7.80
2022-11-01T21:09:15.873Z,7.23
2022-11-01T21:11:45.048Z,10.00
2022-11-01T21:14:17.792Z,10.40
2022-11-01T21:16:50.175Z,12.23
2022-11-01T21:19:24.336Z,8.43
2022-11-01T21:21:58.592Z,8.50
2022-11-01T21:24:36.863Z,12.37
2022-11-01T21:30:22.373Z,11.67
2022-11-01T21:33:04.105Z,9.57
2022-11-01T21:35:47.257Z,10.67
2022-11-01T21:38:42.878Z,8.73
2022-11-01T21:41:42.483Z,9.73
2022-11-01T21:44:32.977Z,10.40
2022-11-01T21:47:16.761Z,8.03
2022-11-01T21:49:45.955Z,12.90
2022-11-01T21:52:19.547Z,8.07
2022-11-01T21:54:48.901Z,8.83
2022-11-01T21:57:18.746Z,10.83
2022-11-01T21:59:48.071Z,6.73
2022-11-01T22:02:18.487Z,12.73
2022-11-01T22:04:47.321Z,10.30
2022-11-01T22:07:16.411Z,8.17
2022-11-01T22:09:45.674Z,9.57
2022-11-01T22:12:15.469Z,7.17
2022-11-01T22:14:45.730Z,9.47
2022-11-01T22:17:17.406Z,8.30
2022-11-01T22:19:49.019Z,11.33
2022-11-01T22:22:17.462Z,8.17
2022-11-01T22:24:46.153Z,7.43
2022-11-01T22:27:15.513Z,11.03
2022-11-01T22:29:44.311Z,6.03
2022-11-01T22:32:12.525Z,8.87
2022-11-01T22:34:42.937Z,11.03
2022-11-01T22:37:13.361Z,11.87
2022-11-01T22:39:42.031Z,7.40
2022-11-01T22:42:12.162Z,9.07
2022-11-01T22:44:40.859Z,10.43
2022-11-01T22:47:22.681Z,7.30
2022-11-01T22:49:53.857Z,8.10
2022-11-01T22:52:30.440Z,8.40
2022-11-01T22:55:02.922Z,9.73
2022-11-01T22:57:34.886Z,9.50
2022-11-01T23:00:19.052Z,13.97
2022-11-01T23:02:47.816Z,11.30
2022-11-01T23:05:25.393Z,14.73
2022-11-01T23:07:55.223Z,7.37
2022-11-01T23:10:26.494Z,7.60
2022-11-01T23:13:17.140Z,12.33
2022-11-01T23:15:45.355Z,8.10
2022-11-01T23:18:18.000Z,10.97
2022-11-01T23:20:53.845Z,9.27
2022-11-01T23:23:22.440Z,15.23
2022-11-01T23:25:50.907Z,6.57
2022-11-01T23:28:19.179Z,10.53
2022-11-01T23:30:48.659Z,10.43
2022-11-01T23:33:18.130Z,9.87
2022-11-01T23:35:53.238Z,15.77
2022-11-01T23:38:23.320Z,10.73
2022-11-01T23:40:54.705Z,7.73
2022-11-01T23:43:24.813Z,10.03
2022-11-01T23:45:53.422Z,14.93
2022-11-01T23:48:22.801Z,8.23
2022-11-01T23:50:53.185Z,10.13
2022-11-01T23:53:24.159Z,6.80
2022-11-01T23:56:18.091Z,9.07
2022-11-01T23:58:46.423Z,9.70
